Terminal Aerodrome Forecast
Issued by NWS Corpus Christi, TX

Home | Current Version | Previous Version | Text Only | Print | Product List | Glossary On
Versions: 1 2 3 4 5 6 7 8 9 10 11 12 13 14 15
000
FTUS44 KCRP 230200 AAA
TAFCRP
TAF AMD
KCRP 230257Z 2303/2324 16007KT P6SM FEW016
      TEMPO 2311/2314 6SM BR SCT015
     FM231400 18006KT P6SM SCT030
     FM231800 12012G17KT P6SM SCT040 BKN250=

USA.gov is the U.S. government's official web portal to all federal, state and local government web resources and services.